Accueil
METAR-TAF:

METAR-TAF

Aéroports :

Buochs, Suisse

latitude: 46-58-28N, longitude: 8-23-49E, altitude: 449 m

Observation

Le bulletin a été fait il y a 32 minutes, à 09:50 UTC
Vent 3 kt de est/sud-est, variant entre nord-est et sud
Température 3°C
Humidité 81%
Pression 1027 hPa
Visibilité 10 km ou plus
Nuages épars à une hauteur de 1600 ft
Nuages épars à une hauteur de 1800 ft
Ciel couvert à une hauteur de 3000 ft

METAR: LSZC 060950Z AUTO 11003KT 040V190 9999 SCT016 SCT018 OVC030 03/M00 Q1027

Heure: 11:22 (10:22 UTC)

Prévision

Le bulletin a été fait il y a 19 heures et 57 minutes, à 14:25 UTC
Prévision valable du 05 à 15 UTC au 05 à 24 UTC
Vent 2 kt de direction variable
Visibilité 10 km ou plus
Nuages fragmentés à une hauteur de 1800 ft
Temporairement
du 05 à 15 UTC au 05 à 19 UTC
averses de pluie

TAF: LSZC 051425Z 0515/0524 VRB02KT 9999 BKN018 TEMPO 0515/0519 SHRA

Observations et prévisions météorologiques de plus de 4000 aéroports (messages METAR et TAF).

Les stations disponibles sont représentées par des disques jaunes et rouges sur la carte.

Passer la souris dessus pour voir le nom de la station.

Cliquer dessus pour voir les observations et prévisions météorologiques.

Pour changer de carte: cliquez sur les boutons verts avec une croix noire pour zoomer, sur le bouton vert avec un tiret pour effectuer un zoom arrière, ou sur les flèches vertes pour les cartes adjacentes.


METAR-TAF: